Time;durP1;ratioP1;P1;durP2;ratioP2;P2;SDS_P1;SDS_P2;PMS_P1;PMS_P2;Temp;Humidity;BMP_temperature;BMP_pressure;BME280_temperature;BME280_humidity;BME280_pressure;Samples;Min_cycle;Max_cycle;Signal;HPM_P1;HPM_P2
2021/03/10 00:01:21;;;;;;;25.87;21.40;;;7.30;99.90;;;;;;5052735;28;20750;-64
2021/03/10 00:03:47;;;;;;;23.37;19.07;;;7.10;99.90;;;;;;5053289;28;20697;-64
2021/03/10 00:06:12;;;;;;;22.37;19.93;;;7.40;99.90;;;;;;5052645;28;20222;-64
2021/03/10 00:08:38;;;;;;;25.70;19.73;;;7.50;99.90;;;;;;5053426;28;20586;-64
2021/03/10 00:11:03;;;;;;;22.97;18.97;;;7.60;99.90;;;;;;5052991;28;20180;-64
2021/03/10 00:13:29;;;;;;;23.60;19.40;;;7.40;99.90;;;;;;5053297;28;20166;-64
2021/03/10 00:15:55;;;;;;;25.13;19.23;;;7.50;99.90;;;;;;5033264;28;20191;-64
2021/03/10 00:18:21;;;;;;;22.60;19.13;;;7.50;99.90;;;;;;5032679;28;20178;-65
2021/03/10 00:20:46;;;;;;;25.40;20.00;;;7.60;99.90;;;;;;5042848;28;20262;-65
2021/03/10 00:23:12;;;;;;;22.63;19.40;;;7.40;99.90;;;;;;5052063;28;20977;-64
2021/03/10 00:25:38;;;;;;;24.77;20.90;;;7.40;99.90;;;;;;5052167;28;20206;-64
2021/03/10 00:28:03;;;;;;;21.70;19.40;;;7.30;99.90;;;;;;5053066;28;20171;-64
2021/03/10 00:30:29;;;;;;;23.30;19.70;;;7.10;99.90;;;;;;5052988;28;20244;-63
2021/03/10 00:32:54;;;;;;;23.20;19.50;;;7.10;99.90;;;;;;5048901;28;20196;-64
2021/03/10 00:35:20;;;;;;;23.30;20.57;;;7.20;99.90;;;;;;5033087;28;20186;-63
2021/03/10 00:37:46;;;;;;;24.87;20.53;;;7.30;99.90;;;;;;5049545;28;20170;-63
2021/03/10 00:40:11;;;;;;;25.67;22.10;;;7.20;99.90;;;;;;5051920;28;20178;-63
2021/03/10 00:42:37;;;;;;;33.03;22.40;;;7.30;99.90;;;;;;5052507;28;20188;-64
2021/03/10 00:45:03;;;;;;;23.73;19.77;;;7.30;99.90;;;;;;5052491;28;20258;-64
2021/03/10 00:47:29;;;;;;;26.73;22.83;;;7.40;99.90;;;;;;5026570;28;20655;-63
2021/03/10 00:49:55;;;;;;;23.93;21.07;;;7.40;99.90;;;;;;5033977;28;20508;-64
2021/03/10 00:52:20;;;;;;;31.93;24.27;;;7.40;99.90;;;;;;5047330;28;20169;-64
2021/03/10 00:54:46;;;;;;;29.07;24.53;;;7.20;99.90;;;;;;5052025;28;20488;-64
2021/03/10 00:57:12;;;;;;;28.07;23.40;;;7.10;99.90;;;;;;5054628;28;20236;-64
2021/03/10 00:59:37;;;;;;;31.27;25.13;;;7.20;99.90;;;;;;5056325;28;20233;-64
2021/03/10 01:02:03;;;;;;;29.37;23.43;;;7.20;99.90;;;;;;5054720;28;20178;-65
2021/03/10 01:04:29;;;;;;;29.17;24.00;;;7.30;99.90;;;;;;5051793;28;20220;-65
2021/03/10 01:06:54;;;;;;;29.83;24.00;;;7.40;99.90;;;;;;5054131;28;20740;-65
2021/03/10 01:09:20;;;;;;;28.83;22.93;;;7.50;99.90;;;;;;5055749;28;20270;-64
2021/03/10 01:11:46;;;;;;;32.80;24.30;;;7.40;99.90;;;;;;5055595;28;20168;-64
2021/03/10 01:14:12;;;;;;;31.77;24.57;;;7.30;99.90;;;;;;5038588;28;20167;-65
2021/03/10 01:16:38;;;;;;;30.90;24.13;;;7.30;99.90;;;;;;5042849;28;20424;-64
2021/03/10 01:19:05;;;;;;;30.20;25.70;;;7.40;99.90;;;;;;5036372;28;20406;-64
2021/03/10 01:21:30;;;;;;;30.20;23.60;;;7.50;99.90;;;;;;5036714;28;20654;-64
2021/03/10 01:23:56;;;;;;;28.40;23.50;;;7.50;99.90;;;;;;5036775;28;20493;-64
2021/03/10 01:26:22;;;;;;;28.13;22.80;;;7.60;99.90;;;;;;5032149;28;20216;-65
2021/03/10 01:28:48;;;;;;;32.03;25.20;;;7.60;99.90;;;;;;5033583;28;20548;-64
2021/03/10 01:31:13;;;;;;;30.70;22.67;;;7.50;99.90;;;;;;5048310;28;20738;-64
2021/03/10 01:33:39;;;;;;;26.50;21.53;;;7.10;99.90;;;;;;5051122;28;20496;-64
2021/03/10 01:36:05;;;;;;;31.53;24.20;;;7.00;99.90;;;;;;5055210;28;20302;-64
2021/03/10 01:38:30;;;;;;;30.97;23.10;;;7.10;99.90;;;;;;5055450;28;20560;-64
2021/03/10 01:40:56;;;;;;;27.20;22.07;;;7.20;99.90;;;;;;5056245;28;20206;-64
2021/03/10 01:43:21;;;;;;;34.23;26.00;;;7.30;99.90;;;;;;5056336;28;20514;-64
2021/03/10 01:45:47;;;;;;;29.73;24.70;;;7.30;99.90;;;;;;5065067;22;20233;-64
2021/03/10 01:48:16;;;;;;;31.03;25.07;;;7.40;99.90;;;;;;5035229;28;20183;-65
2021/03/10 01:50:41;;;;;;;30.67;23.53;;;7.40;99.90;;;;;;5035025;28;20187;-65
2021/03/10 01:53:07;;;;;;;33.27;23.77;;;7.50;99.90;;;;;;5035512;28;20428;-65
2021/03/10 01:55:33;;;;;;;34.00;25.97;;;7.50;99.90;;;;;;5035758;28;20536;-65
2021/03/10 01:57:59;;;;;;;33.50;25.83;;;7.40;99.90;;;;;;5035827;28;20616;-65
2021/03/10 02:00:27;;;;;;;28.97;22.93;;;7.20;99.90;;;;;;5035983;28;20174;-65
2021/03/10 02:02:53;;;;;;;32.97;25.67;;;7.20;99.90;;;;;;5035742;28;20471;-65
2021/03/10 02:05:22;;;;;;;33.93;24.87;;;7.10;99.90;;;;;;5036380;28;20790;-65
2021/03/10 02:07:47;;;;;;;34.90;25.87;;;7.20;99.90;;;;;;5016547;28;20258;-65
2021/03/10 02:10:26;;;;;;;33.47;25.87;;;7.30;99.90;;;;;;5027061;28;20529;-65
2021/03/10 02:13:39;;;;;;;32.33;24.20;;;7.30;99.90;;;;;;5026461;28;20194;-65
2021/03/10 02:16:38;;;;;;;31.97;24.10;;;7.10;99.90;;;;;;4935838;29;20515;-65
2021/03/10 02:19:18;;;;;;;37.20;27.17;;;7.00;99.90;;;;;;4955177;29;20505;-65
2021/03/10 02:22:04;;;;;;;31.77;25.20;;;7.00;99.90;;;;;;4991259;28;20415;-65
2021/03/10 02:25:00;;;;;;;38.77;26.70;;;7.10;99.90;;;;;;5032624;28;20513;-65
2021/03/10 02:27:45;;;;;;;37.20;27.60;;;7.10;99.90;;;;;;5034595;28;20418;-65
2021/03/10 02:30:23;;;;;;;32.77;25.70;;;7.20;99.90;;;;;;5035262;28;20968;-64
2021/03/10 02:33:09;;;;;;;38.67;28.90;;;7.30;99.90;;;;;;5034688;28;20402;-65
2021/03/10 02:35:39;;;;;;;40.93;30.60;;;7.20;99.90;;;;;;5035102;28;20758;-65
2021/03/10 02:38:07;;;;;;;40.77;28.27;;;7.20;99.90;;;;;;5035069;28;20398;-63
2021/03/10 02:40:35;;;;;;;42.67;31.10;;;7.00;99.90;;;;;;5017440;28;20460;-64
2021/03/10 02:43:01;;;;;;;40.07;30.07;;;7.20;99.90;;;;;;5034895;28;20410;-64
2021/03/10 02:45:28;;;;;;;38.03;29.80;;;7.20;99.90;;;;;;5009195;28;20461;-64
2021/03/10 02:47:56;;;;;;;36.97;27.70;;;7.20;99.90;;;;;;5013690;28;20932;-63
2021/03/10 02:50:23;;;;;;;39.97;29.80;;;7.30;99.90;;;;;;5014809;28;20759;-64
2021/03/10 02:52:49;;;;;;;32.80;26.43;;;7.40;99.90;;;;;;5014941;28;20411;-63
2021/03/10 02:55:15;;;;;;;36.27;28.07;;;7.30;99.90;;;;;;5015242;28;20447;-63
2021/03/10 02:57:41;;;;;;;38.00;28.33;;;7.30;99.90;;;;;;5008410;28;20465;-63
2021/03/10 03:00:14;;;;;;;37.63;28.30;;;7.30;99.90;;;;;;5033502;28;20632;-63
2021/03/10 03:02:40;;;;;;;36.30;28.67;;;7.10;99.90;;;;;;5033231;28;20426;-63
2021/03/10 03:05:07;;;;;;;36.20;28.50;;;7.30;99.90;;;;;;5030193;28;20410;-63
2021/03/10 03:07:33;;;;;;;38.77;26.63;;;7.30;99.90;;;;;;5033703;28;20203;-63
2021/03/10 03:10:00;;;;;;;35.37;28.30;;;7.30;99.90;;;;;;5034089;28;20453;-63
2021/03/10 03:12:27;;;;;;;38.87;30.90;;;7.20;99.90;;;;;;5034189;28;20408;-64
2021/03/10 03:14:55;;;;;;;35.30;29.37;;;7.10;99.90;;;;;;5033308;28;20420;-64
2021/03/10 03:17:20;;;;;;;34.30;27.60;;;7.20;99.90;;;;;;5029257;28;20441;-64
2021/03/10 03:19:46;;;;;;;35.40;28.60;;;7.30;99.90;;;;;;5033273;28;20401;-64
2021/03/10 03:22:13;;;;;;;38.77;27.00;;;7.30;99.90;;;;;;5034270;28;20168;-65
2021/03/10 03:24:39;;;;;;;36.70;29.80;;;7.30;99.90;;;;;;5034705;28;20233;-65
2021/03/10 03:27:06;;;;;;;38.93;28.40;;;7.30;99.90;;;;;;5018199;28;20447;-65
2021/03/10 03:29:32;;;;;;;36.00;26.43;;;7.30;99.90;;;;;;5014102;28;20443;-65
2021/03/10 03:31:58;;;;;;;32.43;26.50;;;7.40;99.90;;;;;;5013882;28;20406;-62
2021/03/10 03:34:24;;;;;;;33.67;26.30;;;7.50;99.90;;;;;;5014382;28;20411;-64
2021/03/10 03:36:51;;;;;;;33.70;25.60;;;7.50;99.90;;;;;;5023512;28;20513;-64
2021/03/10 03:39:17;;;;;;;39.17;29.27;;;7.40;99.90;;;;;;5033018;28;20484;-64
2021/03/10 03:41:44;;;;;;;33.67;26.70;;;7.30;99.90;;;;;;5032598;28;20415;-64
2021/03/10 03:44:10;;;;;;;32.63;26.77;;;7.30;99.90;;;;;;5030713;28;20911;-64
2021/03/10 03:46:35;;;;;;;38.60;29.83;;;7.40;99.90;;;;;;5020197;28;20471;-64
2021/03/10 03:49:02;;;;;;;33.80;26.83;;;7.30;99.90;;;;;;5014000;28;20531;-64
2021/03/10 03:51:30;;;;;;;37.30;28.03;;;7.30;99.90;;;;;;5013686;28;20257;-64
2021/03/10 03:54:00;;;;;;;38.40;27.60;;;7.40;99.90;;;;;;5013867;28;20781;-64
2021/03/10 03:56:26;;;;;;;40.93;29.60;;;7.40;99.90;;;;;;5029958;28;20425;-64
2021/03/10 03:58:52;;;;;;;37.00;28.10;;;7.40;99.90;;;;;;5033447;28;20394;-64
2021/03/10 04:01:18;;;;;;;38.10;29.30;;;7.40;99.90;;;;;;5033400;28;20497;-64
2021/03/10 04:03:47;;;;;;;42.00;29.43;;;7.40;99.90;;;;;;5011757;28;20207;-64
2021/03/10 04:06:14;;;;;;;33.17;26.23;;;7.30;99.90;;;;;;5026201;28;20199;-64
2021/03/10 04:08:45;;;;;;;38.40;28.97;;;7.30;99.90;;;;;;5028368;28;20477;-64
2021/03/10 04:11:16;;;;;;;36.97;27.97;;;7.30;99.90;;;;;;5032389;28;21000;-64
2021/03/10 04:13:41;;;;;;;41.40;29.33;;;7.30;99.90;;;;;;5021716;28;20770;-64
2021/03/10 04:16:08;;;;;;;39.20;29.03;;;7.20;99.90;;;;;;5005526;28;20493;-64
2021/03/10 04:18:35;;;;;;;38.63;28.90;;;7.30;99.90;;;;;;5018468;28;20206;-64
2021/03/10 04:21:01;;;;;;;37.17;27.70;;;7.30;99.90;;;;;;5005243;28;20410;-64
2021/03/10 04:23:26;;;;;;;38.03;27.40;;;7.30;99.90;;;;;;5032364;28;20477;-64
2021/03/10 04:25:52;;;;;;;39.83;30.70;;;7.30;99.90;;;;;;5007766;28;20238;-64
2021/03/10 04:28:18;;;;;;;39.90;29.10;;;7.20;99.90;;;;;;5005199;28;20207;-64
2021/03/10 04:30:43;;;;;;;36.10;27.73;;;7.20;99.90;;;;;;5012879;28;20196;-64
2021/03/10 04:33:09;;;;;;;38.67;28.67;;;7.30;99.90;;;;;;5012868;28;20190;-64
2021/03/10 04:35:34;;;;;;;37.73;27.77;;;7.10;99.90;;;;;;5006541;28;20168;-64
2021/03/10 04:38:00;;;;;;;36.53;28.10;;;7.20;99.90;;;;;;5014203;28;20172;-64
2021/03/10 04:40:26;;;;;;;38.50;27.80;;;7.30;99.90;;;;;;5028688;28;20179;-64
2021/03/10 04:42:52;;;;;;;34.77;27.23;;;7.30;99.90;;;;;;5014053;28;20175;-64
2021/03/10 04:45:18;;;;;;;41.40;30.77;;;7.20;99.90;;;;;;5013192;28;20185;-64
2021/03/10 04:47:45;;;;;;;39.20;29.60;;;7.20;99.90;;;;;;5030135;28;20457;-64
2021/03/10 04:50:13;;;;;;;36.63;27.37;;;7.20;99.90;;;;;;5024329;28;20456;-64
2021/03/10 04:52:38;;;;;;;41.03;31.47;;;7.10;99.90;;;;;;5022316;28;20457;-64
2021/03/10 04:55:06;;;;;;;42.07;32.20;;;7.00;99.90;;;;;;5029915;28;21006;-64
2021/03/10 04:57:32;;;;;;;40.13;30.40;;;7.00;99.90;;;;;;5017496;28;20183;-64
2021/03/10 04:59:57;;;;;;;43.47;30.13;;;7.00;99.90;;;;;;5028409;28;20410;-64
2021/03/10 05:02:23;;;;;;;39.87;30.17;;;7.00;99.90;;;;;;5032333;28;20402;-65
2021/03/10 05:04:49;;;;;;;41.23;31.03;;;7.00;99.90;;;;;;5032600;28;20205;-64
2021/03/10 05:07:15;;;;;;;40.20;29.13;;;7.00;99.90;;;;;;5009586;28;20189;-65
2021/03/10 05:09:41;;;;;;;41.10;30.20;;;7.00;99.90;;;;;;5009591;28;20188;-64
2021/03/10 05:12:07;;;;;;;46.50;32.33;;;7.00;99.90;;;;;;5012804;28;20908;-64
2021/03/10 05:14:32;;;;;;;39.13;29.03;;;7.00;99.90;;;;;;5009674;28;22098;-64
2021/03/10 05:16:58;;;;;;;42.13;29.93;;;7.10;99.90;;;;;;5016873;28;20438;-64
2021/03/10 05:19:23;;;;;;;43.00;31.50;;;7.10;99.90;;;;;;5032460;28;20164;-64
2021/03/10 05:21:49;;;;;;;40.50;29.90;;;7.00;99.90;;;;;;5019962;28;20247;-64
2021/03/10 05:24:14;;;;;;;45.83;31.43;;;6.90;99.90;;;;;;5025918;28;20164;-64
2021/03/10 05:26:40;;;;;;;40.67;30.77;;;6.90;99.90;;;;;;5030376;28;20194;-64
2021/03/10 05:29:06;;;;;;;41.60;29.77;;;6.90;99.90;;;;;;5032227;28;20187;-64
2021/03/10 05:31:32;;;;;;;43.60;33.23;;;6.70;99.90;;;;;;5031970;28;20210;-64
2021/03/10 05:33:58;;;;;;;45.13;32.80;;;6.80;99.90;;;;;;5019881;28;20403;-64
2021/03/10 05:36:24;;;;;;;39.90;30.17;;;6.80;99.90;;;;;;5012440;28;20946;-65
2021/03/10 05:38:51;;;;;;;38.00;28.83;;;6.90;99.90;;;;;;5012401;28;20656;-64
2021/03/10 05:41:17;;;;;;;42.63;33.23;;;6.90;99.90;;;;;;5031436;28;20405;-64
2021/03/10 05:43:44;;;;;;;41.87;30.60;;;6.80;99.90;;;;;;5034043;28;20497;-65
2021/03/10 05:46:11;;;;;;;40.17;28.53;;;7.00;99.90;;;;;;5025659;28;21233;-65
2021/03/10 05:48:36;;;;;;;40.93;30.57;;;7.00;99.90;;;;;;5016930;28;20423;-64
2021/03/10 05:51:04;;;;;;;47.37;32.70;;;6.90;99.90;;;;;;5035105;28;20450;-65
2021/03/10 05:53:31;;;;;;;40.90;30.13;;;6.90;99.90;;;;;;5030762;28;20533;-64
2021/03/10 05:56:00;;;;;;;43.93;32.37;;;7.00;99.90;;;;;;5035546;28;20426;-64
2021/03/10 05:58:26;;;;;;;48.13;32.87;;;7.00;99.90;;;;;;5035603;28;20402;-64
2021/03/10 06:00:51;;;;;;;42.60;30.27;;;7.10;99.90;;;;;;5035448;28;20410;-65
2021/03/10 06:03:17;;;;;;;37.13;28.30;;;7.20;99.90;;;;;;5034898;28;20225;-65
2021/03/10 06:05:43;;;;;;;38.63;29.30;;;7.20;99.90;;;;;;5033073;28;20262;-64
2021/03/10 06:08:14;;;;;;;39.73;27.90;;;7.20;99.90;;;;;;5034723;28;20175;-65
2021/03/10 06:10:44;;;;;;;39.63;28.47;;;7.30;99.90;;;;;;5034783;28;20449;-64
2021/03/10 06:13:22;;;;;;;42.83;31.07;;;7.30;99.90;;;;;;5017429;28;20413;-64
2021/03/10 06:15:49;;;;;;;38.60;29.27;;;7.20;99.90;;;;;;5031849;28;20434;-64
2021/03/10 06:18:31;;;;;;;37.37;27.50;;;7.20;99.90;;;;;;5015148;28;20911;-63
2021/03/10 06:21:22;;;;;;;39.63;29.97;;;7.20;99.90;;;;;;5015842;28;20406;-63
2021/03/10 06:24:03;;;;;;;40.60;31.07;;;7.30;99.90;;;;;;5011736;28;20435;-63
2021/03/10 06:26:33;;;;;;;41.40;28.90;;;7.30;99.90;;;;;;5012309;28;20451;-63
2021/03/10 06:29:01;;;;;;;41.03;30.53;;;7.20;99.90;;;;;;5024136;28;20403;-63
2021/03/10 06:31:31;;;;;;;37.20;28.50;;;7.30;99.90;;;;;;5033612;28;20465;-64
2021/03/10 06:34:12;;;;;;;38.50;29.00;;;7.30;99.90;;;;;;4999226;28;20422;-64
2021/03/10 06:36:50;;;;;;;39.73;30.70;;;7.40;99.90;;;;;;5015081;28;20420;-63
2021/03/10 06:39:23;;;;;;;40.80;29.97;;;7.50;99.90;;;;;;5015322;28;20486;-63
2021/03/10 06:41:49;;;;;;;40.73;29.80;;;7.50;99.90;;;;;;5014985;28;20411;-63
2021/03/10 06:44:19;;;;;;;42.00;30.33;;;7.50;99.90;;;;;;5029729;28;20406;-63
2021/03/10 06:46:59;;;;;;;36.40;28.70;;;7.40;99.90;;;;;;5030451;28;20659;-63
2021/03/10 06:49:28;;;;;;;33.50;25.13;;;7.50;99.90;;;;;;4995250;28;20381;-63
2021/03/10 06:51:59;;;;;;;34.20;27.30;;;7.30;99.90;;;;;;4995338;28;20407;-63
2021/03/10 06:54:26;;;;;;;35.80;28.67;;;7.40;99.90;;;;;;4994921;28;20921;-64
2021/03/10 06:57:08;;;;;;;38.70;28.20;;;7.40;99.90;;;;;;4995057;28;20425;-63
2021/03/10 06:59:45;;;;;;;36.50;27.63;;;7.50;99.90;;;;;;5009916;28;20421;-63
2021/03/10 07:02:41;;;;;;;40.13;29.97;;;7.40;99.90;;;;;;5033144;28;20420;-63
2021/03/10 07:05:08;;;;;;;37.30;27.87;;;7.40;99.90;;;;;;5030707;28;20430;-64
2021/03/10 07:07:35;;;;;;;38.10;27.87;;;7.30;99.90;;;;;;5015566;28;20445;-64
2021/03/10 07:10:01;;;;;;;36.10;27.83;;;7.40;99.90;;;;;;5011407;28;20450;-64
2021/03/10 07:12:29;;;;;;;36.63;28.60;;;7.40;99.90;;;;;;5028167;28;20487;-64
2021/03/10 07:14:54;;;;;;;38.57;29.27;;;7.40;99.90;;;;;;5020428;28;20232;-64
2021/03/10 07:17:23;;;;;;;38.33;27.30;;;7.50;99.90;;;;;;5018972;28;20423;-64
2021/03/10 07:19:49;;;;;;;37.60;27.73;;;7.30;99.90;;;;;;5018818;28;20490;-64
2021/03/10 07:22:38;;;;;;;40.20;28.70;;;7.40;99.90;;;;;;5020364;28;20420;-64
2021/03/10 07:25:23;;;;;;;38.07;28.13;;;7.60;99.90;;;;;;5025085;28;20396;-65
2021/03/10 07:27:54;;;;;;;41.90;29.57;;;7.70;99.90;;;;;;5031018;28;20427;-63
2021/03/10 07:30:30;;;;;;;34.47;27.90;;;7.50;99.90;;;;;;5013925;28;20446;-64
2021/03/10 07:33:07;;;;;;;38.23;28.40;;;7.30;99.90;;;;;;5008428;28;20402;-63
2021/03/10 07:35:32;;;;;;;37.60;27.97;;;7.30;99.90;;;;;;4998657;28;20413;-64
2021/03/10 07:37:58;;;;;;;39.10;30.40;;;7.50;99.90;;;;;;5017868;28;20744;-64
2021/03/10 07:40:24;;;;;;;40.80;30.50;;;7.60;99.90;;;;;;5013308;28;20533;-64
2021/03/10 07:42:52;;;;;;;41.47;29.97;;;7.60;99.90;;;;;;5014130;28;20201;-65
2021/03/10 07:45:18;;;;;;;37.60;29.10;;;7.50;99.90;;;;;;5008819;28;20539;-64
2021/03/10 07:47:56;;;;;;;35.60;27.97;;;7.70;99.90;;;;;;5020853;28;20442;-64
2021/03/10 07:50:23;;;;;;;40.77;30.27;;;7.70;99.90;;;;;;5056046;23;20489;-62
2021/03/10 07:52:54;;;;;;;41.70;28.43;;;7.70;99.90;;;;;;5052861;28;20408;-62
2021/03/10 07:55:21;;;;;;;35.17;28.67;;;7.80;99.90;;;;;;5045208;28;20422;-62
2021/03/10 07:57:53;;;;;;;37.60;28.43;;;7.90;99.90;;;;;;5032249;28;20767;-62
2021/03/10 08:00:20;;;;;;;40.23;30.27;;;7.90;99.90;;;;;;5033243;28;20536;-60
2021/03/10 08:02:48;;;;;;;38.43;28.90;;;7.90;99.90;;;;;;5030983;28;22156;-62
2021/03/10 08:05:22;;;;;;;36.60;27.93;;;7.90;99.90;;;;;;5029173;28;20930;-62
2021/03/10 08:07:48;;;;;;;36.07;28.30;;;7.80;99.90;;;;;;5025364;28;20416;-68
2021/03/10 08:10:26;;;;;;;36.57;29.40;;;7.90;99.90;;;;;;5022251;28;20462;-60
2021/03/10 08:12:52;;;;;;;37.17;28.73;;;8.00;99.90;;;;;;5020110;28;20166;-62
2021/03/10 08:15:22;;;;;;;36.43;29.13;;;7.80;99.90;;;;;;5032176;28;20465;-58
2021/03/10 08:17:48;;;;;;;37.37;28.43;;;7.80;99.90;;;;;;5036762;28;20848;-61
2021/03/10 08:20:15;;;;;;;34.80;27.43;;;7.90;99.90;;;;;;5033472;28;20429;-62
2021/03/10 08:22:41;;;;;;;32.93;26.40;;;7.90;99.90;;;;;;5035175;28;20418;-61
2021/03/10 08:25:11;;;;;;;38.97;28.83;;;8.10;99.90;;;;;;5020278;28;20794;-63
2021/03/10 08:27:39;;;;;;;36.57;28.10;;;8.30;99.90;;;;;;5023682;28;20168;-61
2021/03/10 08:30:08;;;;;;;35.87;28.97;;;8.50;99.90;;;;;;5034246;28;20519;-62
2021/03/10 08:32:35;;;;;;;36.10;28.87;;;8.40;99.90;;;;;;5033297;28;20411;-63
2021/03/10 08:35:27;;;;;;;39.50;28.77;;;8.20;99.90;;;;;;5033773;28;20419;-61
2021/03/10 08:37:59;;;;;;;37.53;28.33;;;8.10;99.90;;;;;;5029747;28;20464;-59
2021/03/10 08:40:26;;;;;;;35.77;28.23;;;8.30;99.90;;;;;;5023969;28;20439;-60
2021/03/10 08:42:53;;;;;;;30.77;24.90;;;8.30;99.90;;;;;;5033718;28;20415;-61
2021/03/10 08:45:38;;;;;;;40.47;28.10;;;8.50;99.90;;;;;;5032906;28;20416;-59
2021/03/10 08:48:07;;;;;;;34.70;27.40;;;8.80;99.90;;;;;;5033774;28;20418;-55
2021/03/10 08:50:38;;;;;;;35.83;28.30;;;8.80;99.90;;;;;;5030172;28;20472;-62
2021/03/10 08:53:05;;;;;;;32.33;26.43;;;9.10;99.90;;;;;;5023846;28;20469;-63
2021/03/10 08:55:31;;;;;;;32.97;26.90;;;9.10;99.90;;;;;;5028703;28;20427;-64
2021/03/10 08:58:07;;;;;;;35.83;27.27;;;9.30;99.90;;;;;;5021038;28;20424;-62
2021/03/10 09:00:33;;;;;;;33.55;27.23;;;9.40;99.90;;;;;;5013747;28;20406;-63
2021/03/10 09:03:20;;;;;;;31.90;26.27;;;9.70;99.90;;;;;;5021597;28;20188;-61
2021/03/10 09:05:47;;;;;;;37.77;28.63;;;9.70;99.90;;;;;;5033489;28;20382;-61
2021/03/10 09:08:15;;;;;;;37.10;25.07;;;9.60;99.90;;;;;;5031728;28;20421;-60
2021/03/10 09:10:53;;;;;;;34.93;26.70;;;9.40;99.90;;;;;;5023244;28;20944;-58
2021/03/10 09:13:20;;;;;;;29.97;24.00;;;9.50;99.90;;;;;;5016447;28;20417;-62
2021/03/10 09:15:47;;;;;;;31.07;24.77;;;9.40;99.90;;;;;;5014653;28;20409;-60
2021/03/10 09:18:12;;;;;;;29.00;23.10;;;9.40;99.90;;;;;;5016558;28;20413;-62
2021/03/10 09:20:40;;;;;;;36.00;28.50;;;9.60;99.90;;;;;;5034163;28;20440;-60
2021/03/10 09:23:07;;;;;;;36.53;26.80;;;9.80;99.90;;;;;;5040257;28;20251;-62
2021/03/10 09:25:34;;;;;;;33.20;25.60;;;9.90;99.90;;;;;;5037964;28;20410;-63
2021/03/10 09:28:08;;;;;;;32.47;26.77;;;10.20;99.90;;;;;;5035868;28;20412;-62
2021/03/10 09:30:39;;;;;;;29.23;25.47;;;10.30;99.90;;;;;;5037184;28;20187;-63
2021/03/10 09:33:05;;;;;;;30.70;26.63;;;10.20;99.90;;;;;;5036412;28;20393;-63
2021/03/10 09:35:36;;;;;;;31.40;24.30;;;10.40;99.90;;;;;;5037378;28;20160;-64
2021/03/10 09:38:04;;;;;;;29.63;24.10;;;10.80;99.90;;;;;;5036406;28;20890;-64
2021/03/10 09:40:49;;;;;;;29.63;23.47;;;10.70;99.90;;;;;;5036585;28;20459;-62
2021/03/10 09:43:17;;;;;;;31.83;24.03;;;10.90;99.90;;;;;;5036784;28;20729;-64
2021/03/10 09:45:44;;;;;;;31.40;21.27;;;10.80;99.90;;;;;;5036421;28;20419;-63
2021/03/10 09:48:18;;;;;;;23.10;18.80;;;10.80;99.90;;;;;;5037016;28;20410;-61
2021/03/10 09:50:46;;;;;;;26.60;21.83;;;10.60;99.90;;;;;;5035881;28;20496;-62
2021/03/10 09:53:24;;;;;;;25.10;20.80;;;10.50;99.90;;;;;;5036624;28;20401;-64
2021/03/10 09:55:50;;;;;;;23.67;17.63;;;10.50;99.90;;;;;;5036669;28;20469;-63
2021/03/10 09:58:16;;;;;;;23.20;18.40;;;10.50;99.90;;;;;;5037112;28;20401;-63
2021/03/10 10:00:43;;;;;;;25.77;20.33;;;10.50;99.40;;;;;;5037355;28;20426;-59
2021/03/10 10:03:09;;;;;;;23.90;19.93;;;10.30;99.90;;;;;;5036322;28;20410;-63
2021/03/10 10:05:38;;;;;;;22.23;17.23;;;10.40;99.90;;;;;;5035696;28;20587;-63
2021/03/10 10:08:07;;;;;;;20.97;16.47;;;10.20;99.90;;;;;;5036986;28;20406;-61
2021/03/10 10:10:35;;;;;;;24.20;18.23;;;10.00;99.80;;;;;;5024562;28;20465;-63
2021/03/10 10:13:01;;;;;;;25.77;19.10;;;9.60;99.90;;;;;;5031582;28;20508;-62
2021/03/10 10:15:32;;;;;;;23.77;19.50;;;9.70;99.90;;;;;;5033554;28;20423;-62
2021/03/10 10:18:07;;;;;;;24.53;19.33;;;9.70;99.90;;;;;;5038419;28;20422;-63
2021/03/10 10:20:34;;;;;;;23.50;18.40;;;9.80;99.90;;;;;;5036092;28;20430;-60
2021/03/10 10:23:04;;;;;;;26.47;20.73;;;9.90;99.90;;;;;;5029347;28;20432;-63
2021/03/10 10:25:29;;;;;;;23.83;19.07;;;9.80;99.90;;;;;;5030131;28;20429;-62
2021/03/10 10:27:55;;;;;;;20.40;16.70;;;9.90;99.90;;;;;;5015526;28;20403;-63
2021/03/10 10:30:21;;;;;;;19.33;15.50;;;10.00;99.90;;;;;;4998070;28;20207;-62
2021/03/10 10:32:49;;;;;;;19.57;15.17;;;10.00;99.20;;;;;;5015755;28;20172;-62
2021/03/10 10:35:16;;;;;;;20.90;14.27;;;10.10;98.90;;;;;;5016356;28;20175;-62
2021/03/10 10:37:42;;;;;;;19.20;15.97;;;10.40;99.10;;;;;;5016313;28;20907;-63
2021/03/10 10:40:15;;;;;;;16.67;14.37;;;10.40;98.60;;;;;;5016740;28;20957;-63
2021/03/10 10:42:41;;;;;;;18.13;12.10;;;10.30;98.20;;;;;;5022174;28;20848;-62
2021/03/10 10:45:08;;;;;;;16.47;11.77;;;10.20;97.20;;;;;;5026666;28;20409;-63
2021/03/10 10:47:33;;;;;;;14.87;12.33;;;10.40;97.20;;;;;;5035645;28;20411;-62
2021/03/10 10:50:05;;;;;;;13.43;10.10;;;10.50;97.00;;;;;;5035216;28;20479;-63
2021/03/10 10:52:31;;;;;;;14.10;10.50;;;10.40;96.20;;;;;;5035442;28;20155;-63
2021/03/10 10:54:57;;;;;;;12.30;10.00;;;10.40;96.00;;;;;;5036270;28;20413;-62
2021/03/10 10:57:22;;;;;;;10.27;7.67;;;10.80;95.60;;;;;;5027601;28;20175;-63
2021/03/10 10:59:48;;;;;;;9.10;5.93;;;11.10;94.70;;;;;;5021574;28;20260;-63
2021/03/10 11:02:14;;;;;;;8.63;6.50;;;11.10;92.60;;;;;;5033080;28;20183;-62
2021/03/10 11:04:39;;;;;;;7.43;6.30;;;11.20;92.80;;;;;;5034878;28;20659;-63
2021/03/10 11:07:06;;;;;;;7.90;6.50;;;11.00;92.10;;;;;;5035614;28;20410;-62
2021/03/10 11:09:33;;;;;;;8.27;6.30;;;11.00;92.70;;;;;;5034845;28;20701;-63
2021/03/10 11:11:59;;;;;;;8.43;6.30;;;11.10;92.60;;;;;;5035295;28;20404;-62
2021/03/10 11:14:25;;;;;;;6.97;5.53;;;10.90;92.00;;;;;;5035568;28;20497;-63
2021/03/10 11:16:51;;;;;;;7.67;5.87;;;10.80;91.80;;;;;;5034593;28;20195;-63
2021/03/10 11:19:16;;;;;;;6.33;5.10;;;10.60;91.40;;;;;;5034071;28;20769;-63
2021/03/10 11:21:42;;;;;;;6.17;5.13;;;10.80;91.40;;;;;;5034740;28;20196;-63
2021/03/10 11:24:08;;;;;;;6.27;5.00;;;10.80;91.50;;;;;;5034534;28;20176;-61
2021/03/10 11:26:34;;;;;;;8.80;5.80;;;10.90;91.00;;;;;;5030533;28;20551;-60
2021/03/10 11:29:00;;;;;;;5.63;5.00;;;11.10;91.30;;;;;;5022398;28;20449;-60
2021/03/10 11:31:25;;;;;;;8.50;4.97;;;11.30;90.40;;;;;;5000840;28;21024;-63
2021/03/10 11:33:51;;;;;;;5.07;4.43;;;11.30;89.20;;;;;;5015183;28;20184;-62
2021/03/10 11:36:17;;;;;;;7.20;5.10;;;11.60;89.20;;;;;;4997909;28;20532;-61
2021/03/10 11:38:43;;;;;;;6.50;5.43;;;11.90;87.30;;;;;;5014275;28;20176;-61
2021/03/10 11:41:09;;;;;;;6.30;4.77;;;11.90;86.50;;;;;;5022904;28;20507;-60
2021/03/10 11:43:35;;;;;;;6.30;4.80;;;12.10;88.40;;;;;;5035495;28;20188;-62
2021/03/10 11:46:00;;;;;;;5.83;4.60;;;12.20;87.50;;;;;;5035543;28;20402;-63
2021/03/10 11:48:26;;;;;;;6.67;5.30;;;12.60;85.60;;;;;;5034856;28;20659;-63
2021/03/10 11:50:52;;;;;;;7.50;6.27;;;12.50;84.60;;;;;;5034283;28;20243;-62
2021/03/10 11:53:18;;;;;;;10.20;7.40;;;11.90;86.40;;;;;;5035092;28;20176;-61
2021/03/10 11:55:44;;;;;;;6.27;5.40;;;11.50;85.90;;;;;;5034709;28;20549;-61
2021/03/10 11:58:10;;;;;;;6.67;5.70;;;11.40;87.00;;;;;;5035192;28;20186;-61
2021/03/10 12:00:39;;;;;;;9.87;6.37;;;11.50;87.50;;;;;;5034478;28;20429;-61
2021/03/10 12:03:04;;;;;;;12.90;6.77;;;11.50;87.40;;;;;;5034470;28;20179;-61
2021/03/10 12:05:30;;;;;;;7.57;6.60;;;11.40;88.50;;;;;;5033805;28;20414;-61
2021/03/10 12:07:55;;;;;;;7.77;6.33;;;11.60;86.90;;;;;;5034717;28;20214;-63
2021/03/10 12:10:21;;;;;;;9.83;6.83;;;11.70;86.90;;;;;;5035817;28;20203;-63
2021/03/10 12:12:47;;;;;;;8.10;6.60;;;11.80;86.90;;;;;;5035121;28;20170;-63
2021/03/10 12:15:13;;;;;;;11.60;6.70;;;11.70;84.90;;;;;;5034576;28;20187;-61
2021/03/10 12:17:39;;;;;;;11.33;6.30;;;11.60;85.70;;;;;;5034630;28;20275;-63
2021/03/10 12:20:06;;;;;;;11.20;6.90;;;11.60;85.80;;;;;;5035326;28;20953;-63
2021/03/10 12:22:31;;;;;;;8.67;5.80;;;11.70;85.70;;;;;;5044894;28;20240;-63
2021/03/10 12:24:57;;;;;;;8.30;6.70;;;11.80;85.50;;;;;;5046377;28;20414;-63
2021/03/10 12:27:26;;;;;;;8.80;6.93;;;11.70;83.70;;;;;;5044783;28;20191;-63
2021/03/10 12:29:53;;;;;;;8.77;6.60;;;11.50;84.90;;;;;;5035089;28;20206;-63
2021/03/10 12:32:19;;;;;;;6.97;6.27;;;11.80;85.50;;;;;;5038794;28;20986;-63
2021/03/10 12:34:45;;;;;;;7.30;6.37;;;12.30;84.90;;;;;;5039041;28;20485;-63
2021/03/10 12:37:11;;;;;;;7.73;6.13;;;12.40;82.40;;;;;;5033853;28;20838;-62
2021/03/10 12:39:38;;;;;;;8.00;5.60;;;12.20;81.70;;;;;;5015405;28;20234;-63
2021/03/10 12:42:05;;;;;;;9.00;6.40;;;12.20;82.70;;;;;;5033287;28;20403;-63
2021/03/10 12:44:31;;;;;;;6.43;5.80;;;12.30;83.10;;;;;;5033983;28;20429;-63